sensor_id;sensor_type;location;lat;lon;timestamp;P1;durP1;ratioP1;P2;durP2;ratioP2
20721;SDS011;10522;52.198;9.890;2023-06-22T00:00:49;16.10;;;9.13;;
20721;SDS011;10522;52.198;9.890;2023-06-22T00:03:16;11.53;;;8.97;;
20721;SDS011;10522;52.198;9.890;2023-06-22T00:05:43;11.77;;;9.80;;
20721;SDS011;10522;52.198;9.890;2023-06-22T00:08:09;11.30;;;9.47;;
20721;SDS011;10522;52.198;9.890;2023-06-22T00:10:35;11.20;;;9.40;;
20721;SDS011;10522;52.198;9.890;2023-06-22T00:13:01;12.33;;;8.90;;
20721;SDS011;10522;52.198;9.890;2023-06-22T00:15:27;11.17;;;9.13;;
20721;SDS011;10522;52.198;9.890;2023-06-22T00:17:53;14.20;;;9.20;;
20721;SDS011;10522;52.198;9.890;2023-06-22T00:20:19;14.17;;;10.07;;
20721;SDS011;10522;52.198;9.890;2023-06-22T00:22:44;10.53;;;8.67;;
20721;SDS011;10522;52.198;9.890;2023-06-22T00:25:11;16.97;;;9.70;;
20721;SDS011;10522;52.198;9.890;2023-06-22T00:27:37;13.37;;;8.87;;
20721;SDS011;10522;52.198;9.890;2023-06-22T00:30:03;12.37;;;9.67;;
20721;SDS011;10522;52.198;9.890;2023-06-22T00:32:29;13.53;;;9.23;;
20721;SDS011;10522;52.198;9.890;2023-06-22T00:34:55;11.80;;;9.87;;
20721;SDS011;10522;52.198;9.890;2023-06-22T00:37:20;12.13;;;9.93;;
20721;SDS011;10522;52.198;9.890;2023-06-22T00:39:50;14.37;;;9.50;;
20721;SDS011;10522;52.198;9.890;2023-06-22T00:42:16;18.87;;;9.23;;
20721;SDS011;10522;52.198;9.890;2023-06-22T00:44:42;17.00;;;8.57;;
20721;SDS011;10522;52.198;9.890;2023-06-22T00:47:09;16.47;;;8.63;;
20721;SDS011;10522;52.198;9.890;2023-06-22T00:49:37;12.00;;;9.07;;
20721;SDS011;10522;52.198;9.890;2023-06-22T00:52:03;18.37;;;9.93;;
20721;SDS011;10522;52.198;9.890;2023-06-22T00:54:34;15.50;;;9.67;;
20721;SDS011;10522;52.198;9.890;2023-06-22T00:57:01;22.13;;;11.07;;
20721;SDS011;10522;52.198;9.890;2023-06-22T00:59:27;15.97;;;11.30;;
20721;SDS011;10522;52.198;9.890;2023-06-22T01:01:53;14.07;;;10.23;;
20721;SDS011;10522;52.198;9.890;2023-06-22T01:04:18;13.83;;;10.40;;
20721;SDS011;10522;52.198;9.890;2023-06-22T01:06:45;12.73;;;10.53;;
20721;SDS011;10522;52.198;9.890;2023-06-22T01:09:22;13.30;;;10.77;;
20721;SDS011;10522;52.198;9.890;2023-06-22T01:12:00;16.17;;;10.60;;
20721;SDS011;10522;52.198;9.890;2023-06-22T01:14:37;19.43;;;11.10;;
20721;SDS011;10522;52.198;9.890;2023-06-22T01:17:11;12.73;;;10.40;;
20721;SDS011;10522;52.198;9.890;2023-06-22T01:19:45;16.47;;;11.27;;
20721;SDS011;10522;52.198;9.890;2023-06-22T01:22:20;17.47;;;11.23;;
20721;SDS011;10522;52.198;9.890;2023-06-22T01:30:17;12.93;;;10.97;;
20721;SDS011;10522;52.198;9.890;2023-06-22T01:32:44;16.40;;;11.40;;
20721;SDS011;10522;52.198;9.890;2023-06-22T01:35:12;14.40;;;12.53;;
20721;SDS011;10522;52.198;9.890;2023-06-22T01:37:38;14.87;;;11.30;;
20721;SDS011;10522;52.198;9.890;2023-06-22T01:40:04;13.40;;;11.77;;
20721;SDS011;10522;52.198;9.890;2023-06-22T01:42:32;17.13;;;12.77;;
20721;SDS011;10522;52.198;9.890;2023-06-22T01:44:58;13.53;;;11.27;;
20721;SDS011;10522;52.198;9.890;2023-06-22T01:47:25;19.43;;;11.70;;
20721;SDS011;10522;52.198;9.890;2023-06-22T01:49:52;14.73;;;11.30;;
20721;SDS011;10522;52.198;9.890;2023-06-22T01:52:18;19.63;;;10.80;;
20721;SDS011;10522;52.198;9.890;2023-06-22T01:54:46;15.77;;;10.93;;
20721;SDS011;10522;52.198;9.890;2023-06-22T01:57:12;16.60;;;11.23;;
20721;SDS011;10522;52.198;9.890;2023-06-22T02:02:09;14.00;;;10.87;;
20721;SDS011;10522;52.198;9.890;2023-06-22T02:07:17;15.17;;;10.03;;
20721;SDS011;10522;52.198;9.890;2023-06-22T02:09:45;15.17;;;10.70;;
20721;SDS011;10522;52.198;9.890;2023-06-22T02:12:16;14.13;;;9.97;;
20721;SDS011;10522;52.198;9.890;2023-06-22T02:14:44;11.80;;;10.60;;
20721;SDS011;10522;52.198;9.890;2023-06-22T02:17:11;12.73;;;10.43;;
20721;SDS011;10522;52.198;9.890;2023-06-22T02:19:37;14.13;;;10.50;;
20721;SDS011;10522;52.198;9.890;2023-06-22T02:22:06;13.23;;;10.43;;
20721;SDS011;10522;52.198;9.890;2023-06-22T02:24:31;26.37;;;9.97;;
20721;SDS011;10522;52.198;9.890;2023-06-22T02:26:58;24.87;;;11.10;;
20721;SDS011;10522;52.198;9.890;2023-06-22T02:29:24;22.27;;;10.80;;
20721;SDS011;10522;52.198;9.890;2023-06-22T02:31:51;16.37;;;10.90;;
20721;SDS011;10522;52.198;9.890;2023-06-22T02:34:17;17.83;;;10.73;;
20721;SDS011;10522;52.198;9.890;2023-06-22T02:36:47;16.87;;;11.50;;
20721;SDS011;10522;52.198;9.890;2023-06-22T02:39:25;26.47;;;12.00;;
20721;SDS011;10522;52.198;9.890;2023-06-22T02:41:52;20.80;;;12.37;;
20721;SDS011;10522;52.198;9.890;2023-06-22T02:44:19;21.07;;;11.40;;
20721;SDS011;10522;52.198;9.890;2023-06-22T02:46:44;23.90;;;11.73;;
20721;SDS011;10522;52.198;9.890;2023-06-22T02:49:11;18.30;;;11.27;;
20721;SDS011;10522;52.198;9.890;2023-06-22T02:51:44;20.07;;;12.20;;
20721;SDS011;10522;52.198;9.890;2023-06-22T02:54:11;20.07;;;12.10;;
20721;SDS011;10522;52.198;9.890;2023-06-22T02:56:37;23.57;;;12.70;;
20721;SDS011;10522;52.198;9.890;2023-06-22T02:59:02;16.13;;;11.50;;
20721;SDS011;10522;52.198;9.890;2023-06-22T03:01:28;15.93;;;10.50;;
20721;SDS011;10522;52.198;9.890;2023-06-22T03:03:58;20.33;;;12.93;;
20721;SDS011;10522;52.198;9.890;2023-06-22T03:06:24;16.23;;;11.97;;
20721;SDS011;10522;52.198;9.890;2023-06-22T03:08:54;18.23;;;12.00;;
20721;SDS011;10522;52.198;9.890;2023-06-22T03:11:28;18.50;;;12.87;;
20721;SDS011;10522;52.198;9.890;2023-06-22T03:13:57;21.73;;;12.80;;
20721;SDS011;10522;52.198;9.890;2023-06-22T03:16:23;19.53;;;12.30;;
20721;SDS011;10522;52.198;9.890;2023-06-22T03:18:49;18.53;;;12.23;;
20721;SDS011;10522;52.198;9.890;2023-06-22T03:21:14;20.27;;;12.13;;
20721;SDS011;10522;52.198;9.890;2023-06-22T03:23:41;15.53;;;11.67;;
20721;SDS011;10522;52.198;9.890;2023-06-22T03:26:08;24.77;;;12.33;;
20721;SDS011;10522;52.198;9.890;2023-06-22T03:28:34;21.83;;;11.70;;
20721;SDS011;10522;52.198;9.890;2023-06-22T03:30:59;22.47;;;12.40;;
20721;SDS011;10522;52.198;9.890;2023-06-22T03:33:25;24.87;;;11.63;;
20721;SDS011;10522;52.198;9.890;2023-06-22T03:35:51;31.70;;;14.10;;
20721;SDS011;10522;52.198;9.890;2023-06-22T03:38:16;18.60;;;13.50;;
20721;SDS011;10522;52.198;9.890;2023-06-22T03:40:42;19.03;;;13.13;;
20721;SDS011;10522;52.198;9.890;2023-06-22T03:43:08;25.50;;;13.40;;
20721;SDS011;10522;52.198;9.890;2023-06-22T03:45:34;21.27;;;14.40;;
20721;SDS011;10522;52.198;9.890;2023-06-22T03:48:00;21.67;;;14.33;;
20721;SDS011;10522;52.198;9.890;2023-06-22T03:50:26;17.03;;;14.10;;
20721;SDS011;10522;52.198;9.890;2023-06-22T03:52:51;17.90;;;14.30;;
20721;SDS011;10522;52.198;9.890;2023-06-22T03:55:19;18.70;;;13.63;;
20721;SDS011;10522;52.198;9.890;2023-06-22T03:57:45;20.20;;;13.30;;
20721;SDS011;10522;52.198;9.890;2023-06-22T04:00:11;16.63;;;12.70;;
20721;SDS011;10522;52.198;9.890;2023-06-22T04:02:37;20.67;;;13.47;;
20721;SDS011;10522;52.198;9.890;2023-06-22T04:05:03;21.80;;;13.33;;
20721;SDS011;10522;52.198;9.890;2023-06-22T04:07:29;17.00;;;12.83;;
20721;SDS011;10522;52.198;9.890;2023-06-22T04:09:54;21.40;;;14.00;;
20721;SDS011;10522;52.198;9.890;2023-06-22T04:12:20;17.90;;;12.33;;
20721;SDS011;10522;52.198;9.890;2023-06-22T04:14:46;22.97;;;13.93;;
20721;SDS011;10522;52.198;9.890;2023-06-22T04:17:11;18.33;;;12.13;;
20721;SDS011;10522;52.198;9.890;2023-06-22T04:19:39;18.23;;;13.77;;
20721;SDS011;10522;52.198;9.890;2023-06-22T04:22:04;17.90;;;13.07;;
20721;SDS011;10522;52.198;9.890;2023-06-22T04:24:32;17.37;;;13.97;;
20721;SDS011;10522;52.198;9.890;2023-06-22T04:26:58;22.63;;;13.23;;
20721;SDS011;10522;52.198;9.890;2023-06-22T04:29:28;19.27;;;12.07;;
20721;SDS011;10522;52.198;9.890;2023-06-22T04:31:56;16.13;;;12.47;;
20721;SDS011;10522;52.198;9.890;2023-06-22T04:34:30;25.50;;;14.03;;
20721;SDS011;10522;52.198;9.890;2023-06-22T04:36:56;19.07;;;13.03;;
20721;SDS011;10522;52.198;9.890;2023-06-22T04:39:22;18.57;;;12.93;;
20721;SDS011;10522;52.198;9.890;2023-06-22T04:41:49;20.07;;;13.67;;
20721;SDS011;10522;52.198;9.890;2023-06-22T04:44:18;19.13;;;14.00;;
20721;SDS011;10522;52.198;9.890;2023-06-22T04:46:54;20.13;;;12.63;;
20721;SDS011;10522;52.198;9.890;2023-06-22T04:49:28;23.03;;;15.50;;
20721;SDS011;10522;52.198;9.890;2023-06-22T04:51:58;22.67;;;14.27;;
20721;SDS011;10522;52.198;9.890;2023-06-22T04:54:24;21.00;;;14.93;;
20721;SDS011;10522;52.198;9.890;2023-06-22T04:56:50;21.30;;;14.77;;
20721;SDS011;10522;52.198;9.890;2023-06-22T04:59:30;18.43;;;14.63;;
20721;SDS011;10522;52.198;9.890;2023-06-22T05:01:57;21.83;;;14.27;;
20721;SDS011;10522;52.198;9.890;2023-06-22T05:04:25;24.47;;;15.23;;
20721;SDS011;10522;52.198;9.890;2023-06-22T05:06:52;24.07;;;17.27;;
20721;SDS011;10522;52.198;9.890;2023-06-22T05:09:19;19.23;;;14.77;;
20721;SDS011;10522;52.198;9.890;2023-06-22T05:11:46;25.10;;;15.90;;
20721;SDS011;10522;52.198;9.890;2023-06-22T05:14:12;26.33;;;16.37;;
20721;SDS011;10522;52.198;9.890;2023-06-22T05:16:38;20.93;;;17.33;;
20721;SDS011;10522;52.198;9.890;2023-06-22T05:19:04;24.07;;;17.50;;
20721;SDS011;10522;52.198;9.890;2023-06-22T05:21:30;24.40;;;17.57;;
20721;SDS011;10522;52.198;9.890;2023-06-22T05:23:56;21.57;;;17.27;;
20721;SDS011;10522;52.198;9.890;2023-06-22T05:26:25;26.87;;;16.53;;
20721;SDS011;10522;52.198;9.890;2023-06-22T05:28:52;23.00;;;17.93;;
20721;SDS011;10522;52.198;9.890;2023-06-22T05:31:18;24.50;;;17.90;;
20721;SDS011;10522;52.198;9.890;2023-06-22T05:33:45;19.67;;;17.27;;
20721;SDS011;10522;52.198;9.890;2023-06-22T05:36:11;23.73;;;18.97;;
20721;SDS011;10522;52.198;9.890;2023-06-22T05:38:37;23.43;;;17.77;;
20721;SDS011;10522;52.198;9.890;2023-06-22T05:41:03;25.40;;;17.63;;
20721;SDS011;10522;52.198;9.890;2023-06-22T05:43:29;29.60;;;16.80;;
20721;SDS011;10522;52.198;9.890;2023-06-22T05:45:55;27.60;;;17.43;;
20721;SDS011;10522;52.198;9.890;2023-06-22T05:48:20;22.93;;;17.17;;
20721;SDS011;10522;52.198;9.890;2023-06-22T05:50:46;23.80;;;16.60;;
20721;SDS011;10522;52.198;9.890;2023-06-22T05:53:12;24.47;;;15.63;;
20721;SDS011;10522;52.198;9.890;2023-06-22T05:55:37;20.73;;;15.93;;
20721;SDS011;10522;52.198;9.890;2023-06-22T05:58:03;24.23;;;16.77;;
20721;SDS011;10522;52.198;9.890;2023-06-22T06:00:29;19.30;;;15.40;;
20721;SDS011;10522;52.198;9.890;2023-06-22T06:02:55;21.70;;;15.50;;
20721;SDS011;10522;52.198;9.890;2023-06-22T06:05:20;18.63;;;15.63;;
20721;SDS011;10522;52.198;9.890;2023-06-22T06:07:46;19.37;;;15.83;;
20721;SDS011;10522;52.198;9.890;2023-06-22T06:10:12;21.83;;;16.10;;
20721;SDS011;10522;52.198;9.890;2023-06-22T06:12:38;20.73;;;16.10;;
20721;SDS011;10522;52.198;9.890;2023-06-22T06:15:04;20.00;;;16.07;;
20721;SDS011;10522;52.198;9.890;2023-06-22T06:17:30;23.63;;;16.20;;
20721;SDS011;10522;52.198;9.890;2023-06-22T06:19:56;25.10;;;14.80;;
20721;SDS011;10522;52.198;9.890;2023-06-22T06:22:23;28.40;;;16.57;;
20721;SDS011;10522;52.198;9.890;2023-06-22T06:24:49;22.43;;;16.03;;
20721;SDS011;10522;52.198;9.890;2023-06-22T06:27:15;30.93;;;15.80;;
20721;SDS011;10522;52.198;9.890;2023-06-22T06:29:43;34.23;;;17.10;;
20721;SDS011;10522;52.198;9.890;2023-06-22T06:32:10;32.17;;;17.03;;
20721;SDS011;10522;52.198;9.890;2023-06-22T06:34:36;27.77;;;16.13;;
20721;SDS011;10522;52.198;9.890;2023-06-22T06:37:02;19.43;;;14.57;;
20721;SDS011;10522;52.198;9.890;2023-06-22T06:39:27;20.73;;;14.03;;
20721;SDS011;10522;52.198;9.890;2023-06-22T06:41:53;20.27;;;15.33;;
20721;SDS011;10522;52.198;9.890;2023-06-22T06:44:19;21.43;;;14.47;;
20721;SDS011;10522;52.198;9.890;2023-06-22T06:46:44;23.13;;;14.90;;
20721;SDS011;10522;52.198;9.890;2023-06-22T06:49:10;19.03;;;13.87;;
20721;SDS011;10522;52.198;9.890;2023-06-22T06:51:35;20.57;;;14.93;;
20721;SDS011;10522;52.198;9.890;2023-06-22T06:54:01;22.87;;;14.23;;
20721;SDS011;10522;52.198;9.890;2023-06-22T06:56:28;20.47;;;14.60;;
20721;SDS011;10522;52.198;9.890;2023-06-22T06:58:55;21.30;;;13.80;;
20721;SDS011;10522;52.198;9.890;2023-06-22T07:01:21;19.07;;;12.93;;
20721;SDS011;10522;52.198;9.890;2023-06-22T07:03:47;21.10;;;13.40;;
20721;SDS011;10522;52.198;9.890;2023-06-22T07:06:13;17.87;;;13.33;;
20721;SDS011;10522;52.198;9.890;2023-06-22T07:08:39;20.83;;;14.07;;
20721;SDS011;10522;52.198;9.890;2023-06-22T07:11:04;18.77;;;14.07;;
20721;SDS011;10522;52.198;9.890;2023-06-22T07:13:30;17.00;;;12.90;;
20721;SDS011;10522;52.198;9.890;2023-06-22T07:15:56;16.83;;;13.37;;
20721;SDS011;10522;52.198;9.890;2023-06-22T07:18:21;17.90;;;12.87;;
20721;SDS011;10522;52.198;9.890;2023-06-22T07:20:47;18.73;;;12.80;;
20721;SDS011;10522;52.198;9.890;2023-06-22T07:23:13;17.27;;;12.77;;
20721;SDS011;10522;52.198;9.890;2023-06-22T07:25:39;18.70;;;11.93;;
20721;SDS011;10522;52.198;9.890;2023-06-22T07:28:05;16.40;;;12.27;;
20721;SDS011;10522;52.198;9.890;2023-06-22T07:30:32;15.17;;;10.77;;
20721;SDS011;10522;52.198;9.890;2023-06-22T07:32:58;16.53;;;12.27;;
20721;SDS011;10522;52.198;9.890;2023-06-22T07:35:28;16.17;;;11.13;;
20721;SDS011;10522;52.198;9.890;2023-06-22T07:37:54;18.13;;;12.20;;
20721;SDS011;10522;52.198;9.890;2023-06-22T07:40:19;17.03;;;11.93;;
20721;SDS011;10522;52.198;9.890;2023-06-22T07:42:45;18.63;;;12.33;;
20721;SDS011;10522;52.198;9.890;2023-06-22T07:45:13;15.30;;;11.27;;
20721;SDS011;10522;52.198;9.890;2023-06-22T07:47:39;17.70;;;12.70;;
20721;SDS011;10522;52.198;9.890;2023-06-22T07:50:05;15.67;;;12.00;;
20721;SDS011;10522;52.198;9.890;2023-06-22T07:52:31;17.63;;;12.23;;
20721;SDS011;10522;52.198;9.890;2023-06-22T07:54:57;15.67;;;13.23;;
20721;SDS011;10522;52.198;9.890;2023-06-22T07:57:23;17.63;;;12.13;;
20721;SDS011;10522;52.198;9.890;2023-06-22T07:59:56;20.33;;;14.90;;
20721;SDS011;10522;52.198;9.890;2023-06-22T08:02:23;16.17;;;12.57;;
20721;SDS011;10522;52.198;9.890;2023-06-22T08:04:48;19.27;;;13.20;;
20721;SDS011;10522;52.198;9.890;2023-06-22T08:07:14;21.90;;;13.23;;
20721;SDS011;10522;52.198;9.890;2023-06-22T08:09:45;13.87;;;11.93;;
20721;SDS011;10522;52.198;9.890;2023-06-22T08:12:12;19.73;;;12.90;;
20721;SDS011;10522;52.198;9.890;2023-06-22T08:14:38;16.93;;;13.70;;
20721;SDS011;10522;52.198;9.890;2023-06-22T08:17:04;23.80;;;12.63;;
20721;SDS011;10522;52.198;9.890;2023-06-22T08:19:30;16.83;;;12.33;;
20721;SDS011;10522;52.198;9.890;2023-06-22T08:21:55;15.50;;;12.70;;
20721;SDS011;10522;52.198;9.890;2023-06-22T08:24:22;17.37;;;12.30;;
20721;SDS011;10522;52.198;9.890;2023-06-22T08:26:49;14.57;;;11.60;;
20721;SDS011;10522;52.198;9.890;2023-06-22T08:29:16;18.17;;;11.77;;
20721;SDS011;10522;52.198;9.890;2023-06-22T08:31:42;15.87;;;12.43;;
20721;SDS011;10522;52.198;9.890;2023-06-22T08:34:07;24.67;;;14.00;;
20721;SDS011;10522;52.198;9.890;2023-06-22T08:36:34;22.47;;;13.57;;
20721;SDS011;10522;52.198;9.890;2023-06-22T08:39:17;21.10;;;13.23;;
20721;SDS011;10522;52.198;9.890;2023-06-22T08:41:45;76.73;;;19.87;;
20721;SDS011;10522;52.198;9.890;2023-06-22T08:44:12;44.13;;;15.40;;
20721;SDS011;10522;52.198;9.890;2023-06-22T08:46:38;22.80;;;13.50;;
20721;SDS011;10522;52.198;9.890;2023-06-22T08:49:05;16.13;;;11.63;;
20721;SDS011;10522;52.198;9.890;2023-06-22T08:51:31;21.87;;;12.60;;
20721;SDS011;10522;52.198;9.890;2023-06-22T08:53:57;21.10;;;13.87;;
20721;SDS011;10522;52.198;9.890;2023-06-22T08:56:23;21.80;;;12.37;;
20721;SDS011;10522;52.198;9.890;2023-06-22T08:58:49;16.27;;;11.57;;
20721;SDS011;10522;52.198;9.890;2023-06-22T09:01:16;18.77;;;12.20;;
20721;SDS011;10522;52.198;9.890;2023-06-22T09:03:41;17.80;;;12.00;;
20721;SDS011;10522;52.198;9.890;2023-06-22T09:06:07;17.80;;;11.53;;
20721;SDS011;10522;52.198;9.890;2023-06-22T09:08:38;18.60;;;12.33;;
20721;SDS011;10522;52.198;9.890;2023-06-22T09:11:04;15.47;;;11.63;;
20721;SDS011;10522;52.198;9.890;2023-06-22T09:13:30;17.10;;;11.70;;
20721;SDS011;10522;52.198;9.890;2023-06-22T09:15:57;20.83;;;12.93;;
20721;SDS011;10522;52.198;9.890;2023-06-22T09:18:23;17.83;;;12.10;;
20721;SDS011;10522;52.198;9.890;2023-06-22T09:20:51;15.63;;;12.13;;
20721;SDS011;10522;52.198;9.890;2023-06-22T09:23:17;16.53;;;12.77;;
20721;SDS011;10522;52.198;9.890;2023-06-22T09:25:43;15.63;;;11.80;;
20721;SDS011;10522;52.198;9.890;2023-06-22T09:28:09;16.30;;;12.13;;
20721;SDS011;10522;52.198;9.890;2023-06-22T09:30:34;18.67;;;12.07;;
20721;SDS011;10522;52.198;9.890;2023-06-22T09:33:04;17.07;;;12.60;;
20721;SDS011;10522;52.198;9.890;2023-06-22T09:35:30;17.73;;;13.57;;
20721;SDS011;10522;52.198;9.890;2023-06-22T09:37:55;18.87;;;13.10;;
20721;SDS011;10522;52.198;9.890;2023-06-22T09:40:24;19.97;;;13.70;;
20721;SDS011;10522;52.198;9.890;2023-06-22T09:43:11;19.97;;;14.20;;
20721;SDS011;10522;52.198;9.890;2023-06-22T09:45:37;22.27;;;14.93;;
20721;SDS011;10522;52.198;9.890;2023-06-22T09:48:02;19.53;;;13.23;;
20721;SDS011;10522;52.198;9.890;2023-06-22T09:50:28;22.90;;;15.03;;
20721;SDS011;10522;52.198;9.890;2023-06-22T09:52:54;27.97;;;14.83;;
20721;SDS011;10522;52.198;9.890;2023-06-22T09:55:23;22.47;;;14.57;;
20721;SDS011;10522;52.198;9.890;2023-06-22T09:57:48;18.50;;;14.77;;
20721;SDS011;10522;52.198;9.890;2023-06-22T10:00:16;20.10;;;14.97;;
20721;SDS011;10522;52.198;9.890;2023-06-22T10:02:43;22.07;;;15.73;;
20721;SDS011;10522;52.198;9.890;2023-06-22T10:05:09;22.57;;;16.57;;
20721;SDS011;10522;52.198;9.890;2023-06-22T10:07:35;19.13;;;15.87;;
20721;SDS011;10522;52.198;9.890;2023-06-22T10:10:08;19.63;;;16.50;;
20721;SDS011;10522;52.198;9.890;2023-06-22T10:12:40;21.57;;;16.03;;
20721;SDS011;10522;52.198;9.890;2023-06-22T10:15:07;21.70;;;17.87;;
20721;SDS011;10522;52.198;9.890;2023-06-22T10:17:36;20.03;;;16.17;;
20721;SDS011;10522;52.198;9.890;2023-06-22T10:20:05;22.77;;;17.43;;
20721;SDS011;10522;52.198;9.890;2023-06-22T10:22:37;24.23;;;17.63;;
20721;SDS011;10522;52.198;9.890;2023-06-22T10:25:07;24.10;;;17.40;;
20721;SDS011;10522;52.198;9.890;2023-06-22T10:27:39;19.83;;;16.70;;
20721;SDS011;10522;52.198;9.890;2023-06-22T10:30:05;22.30;;;17.53;;
20721;SDS011;10522;52.198;9.890;2023-06-22T10:32:35;20.47;;;16.63;;
20721;SDS011;10522;52.198;9.890;2023-06-22T10:35:05;22.83;;;18.50;;
20721;SDS011;10522;52.198;9.890;2023-06-22T10:37:50;24.93;;;18.97;;
20721;SDS011;10522;52.198;9.890;2023-06-22T10:40:36;26.67;;;18.60;;
20721;SDS011;10522;52.198;9.890;2023-06-22T10:43:05;23.27;;;18.77;;
20721;SDS011;10522;52.198;9.890;2023-06-22T10:45:36;23.37;;;18.83;;
20721;SDS011;10522;52.198;9.890;2023-06-22T10:48:01;27.83;;;19.27;;
20721;SDS011;10522;52.198;9.890;2023-06-22T10:50:27;26.07;;;18.53;;
20721;SDS011;10522;52.198;9.890;2023-06-22T10:52:53;22.93;;;19.70;;
20721;SDS011;10522;52.198;9.890;2023-06-22T10:55:19;27.13;;;20.33;;
20721;SDS011;10522;52.198;9.890;2023-06-22T10:57:46;23.53;;;18.40;;
20721;SDS011;10522;52.198;9.890;2023-06-22T11:00:15;22.13;;;19.00;;
20721;SDS011;10522;52.198;9.890;2023-06-22T11:02:45;24.03;;;19.30;;
20721;SDS011;10522;52.198;9.890;2023-06-22T11:05:11;24.17;;;20.47;;
20721;SDS011;10522;52.198;9.890;2023-06-22T11:07:43;26.47;;;21.57;;
20721;SDS011;10522;52.198;9.890;2023-06-22T11:10:09;22.70;;;19.63;;
20721;SDS011;10522;52.198;9.890;2023-06-22T11:12:35;24.97;;;19.73;;
20721;SDS011;10522;52.198;9.890;2023-06-22T11:15:01;22.60;;;20.30;;
20721;SDS011;10522;52.198;9.890;2023-06-22T11:17:27;23.60;;;20.30;;
20721;SDS011;10522;52.198;9.890;2023-06-22T11:19:52;23.50;;;20.30;;
20721;SDS011;10522;52.198;9.890;2023-06-22T11:22:18;27.87;;;21.47;;
20721;SDS011;10522;52.198;9.890;2023-06-22T11:24:44;25.00;;;20.03;;
20721;SDS011;10522;52.198;9.890;2023-06-22T11:27:11;23.53;;;20.17;;
20721;SDS011;10522;52.198;9.890;2023-06-22T11:29:42;21.87;;;19.47;;
20721;SDS011;10522;52.198;9.890;2023-06-22T11:32:08;23.60;;;20.10;;
20721;SDS011;10522;52.198;9.890;2023-06-22T11:34:34;24.50;;;21.10;;
20721;SDS011;10522;52.198;9.890;2023-06-22T11:37:00;23.10;;;20.60;;
20721;SDS011;10522;52.198;9.890;2023-06-22T11:39:26;23.63;;;21.10;;
20721;SDS011;10522;52.198;9.890;2023-06-22T11:41:52;24.77;;;21.07;;
20721;SDS011;10522;52.198;9.890;2023-06-22T11:44:18;23.07;;;20.20;;
20721;SDS011;10522;52.198;9.890;2023-06-22T11:46:43;20.77;;;18.67;;
20721;SDS011;10522;52.198;9.890;2023-06-22T11:49:09;22.63;;;19.07;;
20721;SDS011;10522;52.198;9.890;2023-06-22T11:51:35;21.10;;;18.80;;
20721;SDS011;10522;52.198;9.890;2023-06-22T11:54:00;22.23;;;19.77;;
20721;SDS011;10522;52.198;9.890;2023-06-22T11:56:27;22.17;;;18.40;;
20721;SDS011;10522;52.198;9.890;2023-06-22T11:58:53;20.73;;;17.40;;
20721;SDS011;10522;52.198;9.890;2023-06-22T12:01:19;22.43;;;18.07;;
20721;SDS011;10522;52.198;9.890;2023-06-22T12:03:44;20.13;;;17.17;;
20721;SDS011;10522;52.198;9.890;2023-06-22T12:06:10;19.77;;;17.53;;
20721;SDS011;10522;52.198;9.890;2023-06-22T12:08:36;20.93;;;16.90;;
20721;SDS011;10522;52.198;9.890;2023-06-22T12:11:02;22.00;;;17.63;;
20721;SDS011;10522;52.198;9.890;2023-06-22T12:13:27;18.03;;;15.73;;
20721;SDS011;10522;52.198;9.890;2023-06-22T12:15:53;18.37;;;15.27;;
20721;SDS011;10522;52.198;9.890;2023-06-22T12:18:20;16.50;;;14.80;;
20721;SDS011;10522;52.198;9.890;2023-06-22T12:20:46;18.40;;;16.37;;
20721;SDS011;10522;52.198;9.890;2023-06-22T12:23:12;20.83;;;15.67;;
20721;SDS011;10522;52.198;9.890;2023-06-22T12:25:38;17.33;;;15.50;;
20721;SDS011;10522;52.198;9.890;2023-06-22T12:28:04;18.60;;;16.03;;
20721;SDS011;10522;52.198;9.890;2023-06-22T12:30:30;17.43;;;15.63;;
20721;SDS011;10522;52.198;9.890;2023-06-22T12:32:55;17.40;;;15.43;;
20721;SDS011;10522;52.198;9.890;2023-06-22T12:35:21;20.63;;;17.03;;
20721;SDS011;10522;52.198;9.890;2023-06-22T12:37:47;18.07;;;16.10;;
20721;SDS011;10522;52.198;9.890;2023-06-22T12:40:12;17.70;;;15.90;;
20721;SDS011;10522;52.198;9.890;2023-06-22T12:42:38;17.83;;;16.03;;
20721;SDS011;10522;52.198;9.890;2023-06-22T12:45:05;19.20;;;17.20;;
20721;SDS011;10522;52.198;9.890;2023-06-22T12:47:31;19.73;;;16.30;;
20721;SDS011;10522;52.198;9.890;2023-06-22T12:49:56;17.83;;;16.03;;
20721;SDS011;10522;52.198;9.890;2023-06-22T12:52:22;19.43;;;16.30;;
20721;SDS011;10522;52.198;9.890;2023-06-22T12:54:48;19.17;;;15.90;;
20721;SDS011;10522;52.198;9.890;2023-06-22T12:57:13;19.37;;;15.60;;
20721;SDS011;10522;52.198;9.890;2023-06-22T12:59:39;19.67;;;16.93;;
20721;SDS011;10522;52.198;9.890;2023-06-22T13:02:05;16.60;;;14.90;;
20721;SDS011;10522;52.198;9.890;2023-06-22T13:04:30;17.00;;;15.30;;
20721;SDS011;10522;52.198;9.890;2023-06-22T13:06:56;16.10;;;14.53;;
20721;SDS011;10522;52.198;9.890;2023-06-22T13:09:21;15.73;;;13.80;;
20721;SDS011;10522;52.198;9.890;2023-06-22T13:11:47;17.67;;;14.20;;
20721;SDS011;10522;52.198;9.890;2023-06-22T13:14:13;16.13;;;14.17;;
20721;SDS011;10522;52.198;9.890;2023-06-22T13:16:38;14.87;;;12.97;;
20721;SDS011;10522;52.198;9.890;2023-06-22T13:19:04;14.33;;;12.77;;
20721;SDS011;10522;52.198;9.890;2023-06-22T13:21:31;14.57;;;12.13;;
20721;SDS011;10522;52.198;9.890;2023-06-22T13:23:59;15.10;;;13.17;;
20721;SDS011;10522;52.198;9.890;2023-06-22T13:26:24;14.77;;;12.73;;
20721;SDS011;10522;52.198;9.890;2023-06-22T13:28:50;15.23;;;12.27;;
20721;SDS011;10522;52.198;9.890;2023-06-22T13:31:16;13.90;;;12.50;;
20721;SDS011;10522;52.198;9.890;2023-06-22T13:33:43;13.07;;;11.67;;
20721;SDS011;10522;52.198;9.890;2023-06-22T13:36:10;13.17;;;11.80;;
20721;SDS011;10522;52.198;9.890;2023-06-22T13:38:36;13.27;;;11.87;;
20721;SDS011;10522;52.198;9.890;2023-06-22T13:41:04;14.83;;;11.57;;
20721;SDS011;10522;52.198;9.890;2023-06-22T13:43:31;12.77;;;11.33;;
20721;SDS011;10522;52.198;9.890;2023-06-22T13:45:56;13.90;;;12.43;;
20721;SDS011;10522;52.198;9.890;2023-06-22T13:48:23;12.30;;;11.03;;
20721;SDS011;10522;52.198;9.890;2023-06-22T13:50:51;13.93;;;11.83;;
20721;SDS011;10522;52.198;9.890;2023-06-22T13:53:17;14.47;;;12.90;;
20721;SDS011;10522;52.198;9.890;2023-06-22T13:55:42;13.53;;;12.13;;
20721;SDS011;10522;52.198;9.890;2023-06-22T13:58:08;13.63;;;12.20;;
20721;SDS011;10522;52.198;9.890;2023-06-22T14:00:33;14.93;;;11.90;;
20721;SDS011;10522;52.198;9.890;2023-06-22T14:02:59;12.97;;;11.67;;
20721;SDS011;10522;52.198;9.890;2023-06-22T14:05:25;13.43;;;11.97;;
20721;SDS011;10522;52.198;9.890;2023-06-22T14:07:51;19.23;;;12.93;;
20721;SDS011;10522;52.198;9.890;2023-06-22T14:10:17;14.97;;;13.40;;
20721;SDS011;10522;52.198;9.890;2023-06-22T14:12:42;16.20;;;14.13;;
20721;SDS011;10522;52.198;9.890;2023-06-22T14:15:08;15.90;;;13.63;;
20721;SDS011;10522;52.198;9.890;2023-06-22T14:17:35;15.30;;;13.70;;
20721;SDS011;10522;52.198;9.890;2023-06-22T14:20:01;15.10;;;13.37;;
20721;SDS011;10522;52.198;9.890;2023-06-22T14:22:26;15.67;;;13.70;;
20721;SDS011;10522;52.198;9.890;2023-06-22T14:24:54;16.13;;;14.20;;
20721;SDS011;10522;52.198;9.890;2023-06-22T14:27:21;15.13;;;13.53;;
20721;SDS011;10522;52.198;9.890;2023-06-22T14:29:46;16.27;;;14.53;;
20721;SDS011;10522;52.198;9.890;2023-06-22T14:32:12;15.40;;;13.80;;